| time (UTC) | temp F | wind direction | speed MPH | gust MPH | rain 1hr in | rain 24hr in | rain mn in | humidity % | barometer mb |
| 20260902143049 | 67 | 0 | 0.0 | 1.0 | 0.00 | 0.00 | 0.00 | 86 | 1012.5 |
| 20260902141554 | 67 | 262 | 1.0 | 2.0 | 0.00 | 0.00 | 0.00 | 87 | 1012.5 |
| 20260902140054 | 67 | 262 | 0.0 | 3.0 | 0.00 | 0.00 | 0.00 | 86 | 1012.5 |
| 20260902134556 | 68 | 333 | 2.0 | 3.0 | 0.00 | 0.00 | 0.00 | 84 | 1012.5 |
| 20260902133047 | 68 | 331 | 1.0 | 4.0 | 0.00 | 0.00 | 0.00 | 84 | 1012.7 |
| 20260902131602 | 67 | 44 | 2.0 | 5.0 | 0.00 | 0.00 | 0.00 | 85 | 1012.4 |
| 20260902130056 | 68 | 0 | 0.0 | 0.0 | 0.00 | 0.00 | 0.00 | 85 | 1012.2 |
| 20260902124550 | 69 | 0 | 0.0 | 0.0 | 0.00 | 0.00 | 0.00 | 88 | 1012.2 |
| 20260902123103 | 66 | 0 | 0.0 | 1.0 | 0.00 | 0.00 | 0.00 | 92 | 1012.1 |
| 20260902121555 | 65 | 46 | 0.0 | 3.0 | 0.00 | 0.00 | 0.00 | 91 | 1012.0 |
| 20260902120106 | 65 | 28 | 2.0 | 7.0 | 0.00 | 0.00 | 0.00 | 91 | 1011.9 |
| 20260902114549 | 65 | 15 | 1.0 | 3.0 | 0.00 | 0.00 | 0.00 | 90 | 1012.0 |
| 20260902113046 | 66 | 248 | 0.0 | 3.0 | 0.00 | 0.00 | 0.00 | 90 | 1011.9 |
| 20260902111603 | 66 | 248 | 1.0 | 3.0 | 0.00 | 0.00 | 0.00 | 91 | 1011.9 |
| 20260902110057 | 66 | 248 | 0.0 | 2.0 | 0.00 | 0.00 | 0.00 | 88 | 1011.9 |
| 20260902104549 | 66 | 248 | 2.0 | 5.0 | 0.00 | 0.00 | 0.00 | 87 | 1011.9 |
| 20260902103055 | 66 | 246 | 4.0 | 6.0 | 0.00 | 0.00 | 0.00 | 86 | 1012.1 |
| 20260902101555 | 67 | 267 | 3.0 | 6.0 | 0.00 | 0.00 | 0.00 | 86 | 1012.1 |
| 20260902100104 | 67 | 0 | 0.0 | 0.0 | 0.00 | 0.00 | 0.00 | 87 | 1011.9 |
| 20260902094549 | 67 | 0 | 0.0 | 0.0 | 0.00 | 0.00 | 0.00 | 88 | 1012.0 |
| 20260902093046 | 68 | 0 | 0.0 | 0.0 | 0.00 | 0.00 | 0.00 | 85 | 1011.9 |
| 20260902091554 | 68 | 0 | 0.0 | 0.0 | 0.00 | 0.00 | 0.00 | 85 | 1012.0 |
| 20260902090047 | 68 | 176 | 3.0 | 5.0 | 0.00 | 0.00 | 0.00 | 84 | 1012.1 |
| 20260902084544 | 69 | 0 | 0.0 | 5.0 | 0.00 | 0.00 | 0.00 | 80 | 1011.8 |
| 20260902083107 | 69 | 236 | 2.0 | 4.0 | 0.00 | 0.00 | 0.00 | 79 | 1011.5 |
| 20260902081550 | 69 | 263 | 4.0 | 8.0 | 0.00 | 0.00 | 0.00 | 76 | 1011.3 |
| 20260902080044 | 69 | 261 | 7.0 | 9.0 | 0.00 | 0.00 | 0.00 | 79 | 1011.7 |
| 20260902074609 | 69 | 239 | 7.0 | 10.0 | 0.00 | 0.00 | 0.00 | 80 | 1011.8 |
| 20260902073053 | 69 | 287 | 4.0 | 7.0 | 0.00 | 0.00 | 0.00 | 78 | 1011.8 |
| 20260902071547 | 69 | 276 | 1.0 | 3.0 | 0.00 | 0.00 | 0.00 | 79 | 1011.8 |
| 20260902070048 | 69 | 13 | 0.0 | 2.0 | 0.00 | 0.00 | 0.00 | 78 | 1011.4 |
| 20260902064542 | 70 | 0 | 0.0 | 3.0 | 0.00 | 0.00 | 0.00 | 78 | 1011.5 |
| 20260902063058 | 70 | 298 | 4.0 | 6.0 | 0.00 | 0.00 | 0.00 | 79 | 1011.8 |
| 20260902061549 | 70 | 319 | 6.0 | 9.0 | 0.00 | 0.00 | 0.00 | 79 | 1012.0 |
| 20260902060044 | 70 | 355 | 5.0 | 8.0 | 0.00 | 0.00 | 0.00 | 80 | 1011.5 |
| 20260902054546 | 70 | 323 | 4.0 | 8.0 | 0.00 | 0.00 | 0.00 | 79 | 1011.7 |
| 20260902053052 | 70 | 324 | 7.0 | 10.0 | 0.00 | 0.00 | 0.00 | 78 | 1011.8 |
| 20260902051548 | 69 | 318 | 4.0 | 6.0 | 0.00 | 0.00 | 0.00 | 80 | 1012.0 |
| 20260902050058 | 70 | 295 | 3.0 | 7.0 | 0.00 | 0.00 | 0.00 | 78 | 1012.1 |
| 20260902044555 | 70 | 285 | 2.0 | 7.0 | 0.00 | 0.00 | 0.00 | 80 | 1012.0 |
| 20260902043052 | 71 | 300 | 6.0 | 8.0 | 0.00 | 0.00 | 0.00 | 77 | 1011.8 |
| 20260902041547 | 71 | 308 | 5.0 | 8.0 | 0.00 | 0.00 | 0.00 | 76 | 1011.6 |
| 20260902040058 | 72 | 309 | 7.0 | 9.0 | 0.00 | 0.00 | 0.00 | 73 | 1011.4 |
| 20260902034555 | 73 | 310 | 8.0 | 11.0 | 0.00 | 0.00 | 0.00 | 72 | 1011.5 |
| 20260902033053 | 73 | 301 | 9.0 | 11.0 | 0.00 | 0.00 | 0.00 | 71 | 1011.6 |
| 20260902031602 | 73 | 324 | 5.0 | 8.0 | 0.00 | 0.00 | 0.00 | 72 | 1011.5 |
| 20260902030043 | 73 | 305 | 5.0 | 9.0 | 0.00 | 0.00 | 0.00 | 70 | 1011.6 |
| 20260902024559 | 73 | 295 | 6.0 | 8.0 | 0.00 | 0.00 | 0.00 | 69 | 1011.5 |
| 20260902023053 | 74 | 290 | 8.0 | 11.0 | 0.00 | 0.00 | 0.00 | 67 | 1011.5 |
| 20260902021558 | 74 | 258 | 6.0 | 11.0 | 0.00 | 0.00 | 0.00 | 68 | 1011.5 |
| 20260902020043 | 74 | 273 | 7.0 | 10.0 | 0.00 | 0.00 | 0.00 | 67 | 1011.3 |
| 20260902014555 | 74 | 267 | 6.0 | 8.0 | 0.00 | 0.00 | 0.00 | 65 | 1011.1 |
| 20260902013051 | 75 | 296 | 3.0 | 5.0 | 0.00 | 0.00 | 0.00 | 62 | 1011.0 |
| 20260902011549 | 76 | 299 | 3.0 | 5.0 | 0.00 | 0.00 | 0.00 | 62 | 1010.9 |
| 20260902010055 | 75 | 293 | 2.0 | 4.0 | 0.00 | 0.00 | 0.00 | 63 | 1010.8 |
| 20260902004556 | 75 | 298 | 1.0 | 3.0 | 0.00 | 0.00 | 0.00 | 65 | 1010.5 |
| 20260902003051 | 76 | 294 | 5.0 | 8.0 | 0.00 | 0.00 | 0.00 | 63 | 1010.8 |
| 20260902001556 | 76 | 290 | 7.0 | 10.0 | 0.00 | 0.00 | 0.00 | 62 | 1010.6 |
| 20260902000051 | 76 | 288 | 5.0 | 9.0 | 0.00 | 0.00 | 0.00 | 65 | 1010.7 |
| 20260901234557 | 76 | 286 | 7.0 | 11.0 | 0.00 | 0.00 | 0.00 | 63 | 1010.5 |
| 20260901233051 | 77 | 282 | 8.0 | 11.0 | 0.00 | 0.00 | 0.00 | 58 | 1010.3 |
| 20260901231544 | 78 | 285 | 10.0 | 13.0 | 0.00 | 0.00 | 0.00 | 59 | 1010.3 |
| 20260901230105 | 78 | 292 | 9.0 | 13.0 | 0.00 | 0.00 | 0.00 | 58 | 1010.1 |
| 20260901224549 | 78 | 284 | 11.0 | 14.0 | 0.00 | 0.00 | 0.00 | 57 | 1010.0 |
| 20260901223101 | 79 | 306 | 11.0 | 17.0 | 0.00 | 0.00 | 0.00 | 56 | 1010.2 |
| 20260901221546 | 78 | 285 | 12.0 | 17.0 | 0.00 | 0.00 | 0.00 | 57 | 1010.1 |
| 20260901220116 | 79 | 284 | 15.0 | 20.0 | 0.00 | 0.00 | 0.00 | 54 | 1010.0 |
| 20260901214549 | 80 | 299 | 15.0 | 20.0 | 0.00 | 0.00 | 0.00 | 53 | 1010.1 |
| 20260901213055 | 80 | 295 | 15.0 | 20.0 | 0.00 | 0.00 | 0.00 | 51 | 1010.1 |
| 20260901211556 | 80 | 302 | 13.0 | 16.0 | 0.00 | 0.00 | 0.00 | 53 | 1009.8 |
| 20260901210055 | 80 | 277 | 11.0 | 16.0 | 0.00 | 0.00 | 0.00 | 57 | 1009.8 |
| 20260901204553 | 81 | 272 | 16.0 | 22.0 | 0.00 | 0.00 | 0.00 | 50 | 1009.7 |
| 20260901203101 | 81 | 261 | 18.0 | 27.0 | 0.00 | 0.00 | 0.00 | 50 | 1009.7 |
| 20260901201602 | 81 | 271 | 15.0 | 24.0 | 0.00 | 0.00 | 0.00 | 49 | 1009.6 |
| 20260901200052 | 81 | 290 | 18.0 | 24.0 | 0.00 | 0.00 | 0.00 | 48 | 1009.8 |
| 20260901194555 | 82 | 269 | 11.0 | 18.0 | 0.00 | 0.00 | 0.00 | 49 | 1009.9 |
| 20260901193049 | 81 | 284 | 14.0 | 18.0 | 0.00 | 0.00 | 0.00 | 48 | 1010.1 |
| 20260901191611 | 80 | 295 | 16.0 | 22.0 | 0.00 | 0.00 | 0.00 | 51 | 1010.2 |
| 20260901190121 | 80 | 292 | 17.0 | 22.0 | 0.00 | 0.00 | 0.00 | 48 | 1010.3 |
| 20260901184610 | 80 | 285 | 15.0 | 19.0 | 0.00 | 0.00 | 0.00 | 49 | 1010.3 |
| 20260901183051 | 80 | 276 | 12.0 | 19.0 | 0.00 | 0.00 | 0.00 | 56 | 1010.7 |
| 20260901181557 | 79 | 265 | 9.0 | 14.0 | 0.00 | 0.00 | 0.00 | 55 | 1011.0 |
| 20260901180056 | 79 | 277 | 14.0 | 18.0 | 0.00 | 0.00 | 0.00 | 54 | 1011.1 |
| 20260901174558 | 78 | 277 | 13.0 | 20.0 | 0.00 | 0.00 | 0.00 | 54 | 1011.2 |
| 20260901173050 | 78 | 288 | 14.0 | 20.0 | 0.00 | 0.00 | 0.00 | 59 | 1011.4 |
| 20260901171547 | 76 | 315 | 4.0 | 10.0 | 0.00 | 0.00 | 0.00 | 63 | 1011.5 |
| 20260901170059 | 74 | 189 | 6.0 | 9.0 | 0.00 | 0.00 | 0.00 | 73 | 1011.5 |
| 20260901164556 | 73 | 184 | 6.0 | 9.0 | 0.00 | 0.00 | 0.00 | 76 | 1011.6 |
| 20260901163051 | 72 | 194 | 6.0 | 11.0 | 0.00 | 0.00 | 0.00 | 78 | 1011.7 |
| 20260901161604 | 71 | 181 | 6.0 | 10.0 | 0.00 | 0.00 | 0.00 | 82 | 1011.9 |
| 20260901160113 | 70 | 196 | 6.0 | 10.0 | 0.00 | 0.00 | 0.00 | 87 | 1012.1 |
| 20260901154556 | 70 | 198 | 5.0 | 9.0 | 0.00 | 0.00 | 0.00 | 88 | 1012.1 |
| 20260901153107 | 69 | 204 | 7.0 | 9.0 | 0.00 | 0.00 | 0.00 | 88 | 1012.0 |
| 20260901151543 | 69 | 192 | 5.0 | 8.0 | 0.00 | 0.00 | 0.00 | 88 | 1012.1 |
| 20260901150043 | 70 | 202 | 5.0 | 9.0 | 0.00 | 0.00 | 0.00 | 88 | 1012.0 |
| 20260901144556 | 70 | 211 | 5.0 | 8.0 | 0.00 | 0.00 | 0.00 | 79 | 1012.0 |